createdAt,value
2023-03-11T00:00:48.908Z,15.08
2023-03-11T00:03:18.814Z,15.09
2023-03-11T00:05:46.954Z,15.06
2023-03-11T00:08:23.269Z,15.06
2023-03-11T00:10:53.264Z,15.07
2023-03-11T00:13:23.610Z,15.07
2023-03-11T00:15:55.870Z,15.11
2023-03-11T00:18:31.839Z,15.13
2023-03-11T00:21:00.982Z,15.09
2023-03-11T00:23:30.129Z,15.05
2023-03-11T00:25:59.999Z,15.06
2023-03-11T00:28:29.738Z,15.07
2023-03-11T00:30:59.908Z,15.03
2023-03-11T00:33:29.576Z,14.98
2023-03-11T00:35:58.929Z,14.92
2023-03-11T00:38:27.892Z,14.87
2023-03-11T00:40:56.155Z,14.86
2023-03-11T00:43:24.953Z,14.86
2023-03-11T00:45:53.387Z,14.89
2023-03-11T00:48:23.754Z,14.94
2023-03-11T00:50:53.055Z,14.94
2023-03-11T00:53:25.020Z,14.91
2023-03-11T00:55:53.562Z,14.85
2023-03-11T00:58:27.424Z,14.80
2023-03-11T01:00:57.606Z,14.81
2023-03-11T01:03:26.405Z,14.82
2023-03-11T01:05:56.243Z,14.85
2023-03-11T01:08:27.387Z,14.82
2023-03-11T01:10:57.605Z,14.82
2023-03-11T01:13:27.117Z,14.79
2023-03-11T01:15:56.851Z,14.77
2023-03-11T01:18:25.230Z,14.79
2023-03-11T01:20:55.341Z,14.84
2023-03-11T01:23:23.622Z,14.87
2023-03-11T01:25:51.889Z,14.87
2023-03-11T01:28:20.236Z,14.89
2023-03-11T01:30:48.846Z,14.91
2023-03-11T01:33:19.275Z,14.91
2023-03-11T01:35:49.613Z,14.92
2023-03-11T01:38:18.188Z,14.91
2023-03-11T01:40:48.519Z,14.91
2023-03-11T01:43:40.877Z,14.90
2023-03-11T01:46:25.668Z,14.91
2023-03-11T01:48:55.691Z,14.93
2023-03-11T01:51:43.906Z,14.96
2023-03-11T01:54:17.531Z,15.01
2023-03-11T01:56:46.862Z,15.04
2023-03-11T01:59:19.994Z,15.07
2023-03-11T02:01:52.681Z,15.08
2023-03-11T02:04:22.075Z,15.09
2023-03-11T02:06:53.084Z,15.10
2023-03-11T02:09:24.460Z,15.10
2023-03-11T02:11:54.791Z,15.09
2023-03-11T02:14:23.887Z,15.12
2023-03-11T02:16:57.296Z,15.13
2023-03-11T02:19:38.449Z,15.13
2023-03-11T02:22:07.257Z,15.12
2023-03-11T02:24:39.560Z,15.13
2023-03-11T02:27:16.346Z,15.17
2023-03-11T02:29:50.414Z,15.25
2023-03-11T02:32:20.076Z,15.32
2023-03-11T02:34:48.414Z,15.38
2023-03-11T02:37:17.302Z,15.44
2023-03-11T02:39:52.061Z,15.48
2023-03-11T02:42:30.973Z,15.51
2023-03-11T02:45:06.400Z,15.54
2023-03-11T02:47:34.511Z,15.56
2023-03-11T02:50:06.659Z,15.58
2023-03-11T02:52:35.227Z,15.58
2023-03-11T02:55:03.610Z,15.55
2023-03-11T02:57:32.192Z,15.54
2023-03-11T03:00:06.519Z,15.55
2023-03-11T03:02:37.866Z,15.57
2023-03-11T03:05:07.782Z,15.56
2023-03-11T03:07:37.285Z,15.51
2023-03-11T03:10:07.097Z,15.46
2023-03-11T03:12:37.542Z,15.46
2023-03-11T03:15:07.521Z,15.45
2023-03-11T03:17:36.360Z,15.43
2023-03-11T03:20:11.408Z,15.42
2023-03-11T03:22:43.650Z,15.43
2023-03-11T03:25:13.072Z,15.43
2023-03-11T03:27:42.671Z,15.42
2023-03-11T03:30:11.867Z,15.38
2023-03-11T03:32:41.145Z,15.32
2023-03-11T03:35:12.632Z,15.21
2023-03-11T03:38:01.595Z,15.09
2023-03-11T03:40:30.891Z,15.07
2023-03-11T03:43:00.405Z,15.03
2023-03-11T03:45:29.272Z,14.99
2023-03-11T03:47:57.757Z,15.00
2023-03-11T03:50:26.767Z,14.99
2023-03-11T03:52:56.047Z,14.92
2023-03-11T03:55:24.599Z,14.84
2023-03-11T03:57:53.021Z,14.68
2023-03-11T04:00:23.367Z,14.55
2023-03-11T04:02:54.813Z,14.50
2023-03-11T04:05:27.910Z,14.41
2023-03-11T04:07:56.586Z,14.40
2023-03-11T04:10:24.852Z,14.40
2023-03-11T04:12:53.641Z,14.41
2023-03-11T04:15:22.136Z,14.35
2023-03-11T04:17:51.509Z,14.31
2023-03-11T04:20:20.322Z,14.30
2023-03-11T04:22:49.751Z,14.32
2023-03-11T04:25:18.313Z,14.34
2023-03-11T04:27:50.272Z,14.34
2023-03-11T04:30:19.551Z,14.38
2023-03-11T04:32:48.527Z,14.43
2023-03-11T04:35:17.260Z,14.45
2023-03-11T04:37:46.866Z,14.45
2023-03-11T04:40:15.452Z,14.45
2023-03-11T04:42:44.058Z,14.45
2023-03-11T04:45:13.438Z,14.37
2023-03-11T04:47:42.813Z,14.23
2023-03-11T04:50:11.542Z,14.09
2023-03-11T04:52:40.337Z,13.99
2023-03-11T04:55:09.748Z,13.96
2023-03-11T04:57:38.952Z,13.97
2023-03-11T05:00:12.370Z,13.92
2023-03-11T05:02:42.146Z,13.84
2023-03-11T05:05:10.730Z,13.79
2023-03-11T05:07:39.305Z,13.68
2023-03-11T05:10:10.245Z,13.51
2023-03-11T05:12:38.721Z,13.42
2023-03-11T05:15:08.433Z,13.38
2023-03-11T05:17:37.536Z,13.39
2023-03-11T05:20:08.057Z,13.41
2023-03-11T05:22:38.798Z,13.50
2023-03-11T05:25:07.794Z,13.65
2023-03-11T05:27:36.510Z,13.77
2023-03-11T05:30:07.382Z,13.84
2023-03-11T05:32:36.752Z,13.92
2023-03-11T05:35:07.557Z,14.02
2023-03-11T05:37:39.358Z,14.19
2023-03-11T05:40:11.270Z,14.35
2023-03-11T05:42:41.533Z,14.47
2023-03-11T05:45:10.824Z,14.55
2023-03-11T05:47:42.571Z,14.57
2023-03-11T05:50:12.120Z,14.55
2023-03-11T05:52:41.590Z,14.51
2023-03-11T05:55:12.427Z,14.45
2023-03-11T05:57:46.950Z,14.47
2023-03-11T06:00:16.363Z,14.54
2023-03-11T06:02:53.017Z,14.55
2023-03-11T06:05:21.844Z,14.52
2023-03-11T06:07:50.974Z,14.47
2023-03-11T06:10:20.321Z,14.36
2023-03-11T06:12:48.808Z,14.23
2023-03-11T06:15:30.016Z,14.21
2023-03-11T06:17:58.262Z,14.34
2023-03-11T06:20:28.804Z,14.50
2023-03-11T06:22:58.396Z,14.63
2023-03-11T06:25:26.854Z,14.70
2023-03-11T06:27:56.285Z,14.72
2023-03-11T06:30:25.622Z,14.65
2023-03-11T06:33:08.206Z,14.54
2023-03-11T06:35:37.072Z,14.42
2023-03-11T06:38:05.475Z,14.34
2023-03-11T06:40:34.468Z,14.23
2023-03-11T06:43:02.854Z,14.18
2023-03-11T06:45:35.755Z,14.23
2023-03-11T06:48:04.937Z,14.27
2023-03-11T06:50:40.027Z,14.30
2023-03-11T06:53:08.451Z,14.31
2023-03-11T06:55:37.255Z,14.27
2023-03-11T06:58:07.895Z,14.07
2023-03-11T07:00:36.865Z,13.87
2023-03-11T07:03:05.452Z,13.79
2023-03-11T07:05:35.185Z,13.79
2023-03-11T07:08:06.820Z,13.83
2023-03-11T07:10:41.037Z,13.90
2023-03-11T07:13:10.036Z,13.92
2023-03-11T07:15:38.620Z,13.95
2023-03-11T07:18:08.125Z,13.97
2023-03-11T07:20:37.134Z,13.98
2023-03-11T07:23:05.290Z,13.99
2023-03-11T07:25:33.879Z,14.06
2023-03-11T07:28:02.278Z,14.20
2023-03-11T07:30:31.662Z,14.30
2023-03-11T07:33:01.372Z,14.26
2023-03-11T07:35:29.838Z,14.28
2023-03-11T07:38:01.417Z,14.34
2023-03-11T07:40:31.107Z,14.37
2023-03-11T07:42:59.739Z,14.45
2023-03-11T07:45:28.738Z,14.48
2023-03-11T07:47:57.094Z,14.50
2023-03-11T07:50:26.491Z,14.51
2023-03-11T07:52:54.887Z,14.53
2023-03-11T07:55:27.654Z,14.60
2023-03-11T07:57:56.953Z,14.71
2023-03-11T08:00:25.234Z,14.84
2023-03-11T08:02:53.643Z,14.93
2023-03-11T08:05:22.399Z,14.91
2023-03-11T08:07:53.134Z,14.87
2023-03-11T08:10:21.864Z,14.83
2023-03-11T08:12:51.289Z,14.81
2023-03-11T08:15:19.525Z,14.80
2023-03-11T08:17:49.119Z,14.81
2023-03-11T08:20:18.004Z,14.77
2023-03-11T08:22:58.130Z,14.65
2023-03-11T08:25:27.054Z,14.58
2023-03-11T08:27:55.269Z,14.55
2023-03-11T08:30:23.941Z,14.52
2023-03-11T08:33:03.088Z,14.50
2023-03-11T08:35:32.228Z,14.51
2023-03-11T08:38:01.042Z,14.53
2023-03-11T08:40:29.424Z,14.53
2023-03-11T08:42:58.800Z,14.52
2023-03-11T08:45:27.344Z,14.52
2023-03-11T08:47:55.995Z,14.51
2023-03-11T08:50:24.691Z,14.47
2023-03-11T08:52:53.167Z,14.41
2023-03-11T08:55:26.214Z,14.34
2023-03-11T08:57:55.053Z,14.25
2023-03-11T09:00:23.952Z,14.25
2023-03-11T09:02:52.717Z,14.23
2023-03-11T09:05:21.415Z,14.14
2023-03-11T09:07:51.152Z,13.99
2023-03-11T09:10:19.312Z,13.77
2023-03-11T09:12:49.537Z,13.59
2023-03-11T09:15:18.901Z,13.59
2023-03-11T09:17:47.516Z,13.54
2023-03-11T09:20:18.360Z,13.51
2023-03-11T09:22:47.119Z,13.52
2023-03-11T09:25:15.665Z,13.55
2023-03-11T09:27:45.163Z,13.61
2023-03-11T09:30:14.031Z,13.59
2023-03-11T09:32:42.339Z,13.54
2023-03-11T09:35:13.236Z,13.56
2023-03-11T09:37:41.520Z,13.58
2023-03-11T09:40:18.103Z,13.60
2023-03-11T09:42:57.894Z,13.58
2023-03-11T09:45:28.318Z,13.55
2023-03-11T09:48:27.426Z,13.52
2023-03-11T09:51:00.601Z,13.52
2023-03-11T09:53:42.629Z,13.55
2023-03-11T09:56:13.421Z,13.61
2023-03-11T09:58:47.212Z,13.69
2023-03-11T10:01:17.279Z,13.70
2023-03-11T10:03:45.493Z,13.63
2023-03-11T10:06:16.049Z,13.62
2023-03-11T10:09:13.007Z,13.62
2023-03-11T10:12:02.066Z,13.68
2023-03-11T10:15:07.219Z,13.73
2023-03-11T10:17:43.377Z,13.76
2023-03-11T10:20:15.143Z,13.90
2023-03-11T10:23:02.170Z,13.98
2023-03-11T10:25:42.222Z,13.89
2023-03-11T10:28:13.194Z,13.81
2023-03-11T10:30:58.281Z,13.76
2023-03-11T10:33:31.614Z,13.78
2023-03-11T10:36:04.132Z,13.83
2023-03-11T10:38:51.919Z,13.90
2023-03-11T10:41:32.030Z,13.96
2023-03-11T10:44:07.655Z,14.03
2023-03-11T10:46:37.298Z,14.05
2023-03-11T10:49:08.801Z,14.07
2023-03-11T10:51:39.855Z,14.09
2023-03-11T10:54:07.979Z,14.08
2023-03-11T10:56:37.501Z,14.08
2023-03-11T10:59:19.445Z,14.05
2023-03-11T11:02:04.520Z,14.02
2023-03-11T11:04:37.410Z,14.04
2023-03-11T11:07:21.003Z,14.12
2023-03-11T11:10:10.048Z,14.18
2023-03-11T11:12:59.152Z,14.23
2023-03-11T11:15:33.998Z,14.27
2023-03-11T11:18:17.133Z,14.30
2023-03-11T11:21:16.286Z,14.34
2023-03-11T11:23:48.999Z,14.42
2023-03-11T11:26:20.532Z,14.49
2023-03-11T11:29:10.174Z,14.49
2023-03-11T11:31:47.360Z,14.53
2023-03-11T11:34:34.760Z,14.58
2023-03-11T11:37:05.564Z,14.66
2023-03-11T11:41:22.177Z,13.39
2023-03-11T11:44:05.719Z,14.42
2023-03-11T11:46:43.892Z,14.57
2023-03-11T11:49:19.362Z,14.67
2023-03-11T11:51:52.703Z,14.76
2023-03-11T11:54:39.108Z,14.88
2023-03-11T11:57:15.553Z,14.91
2023-03-11T11:59:44.442Z,14.82
2023-03-11T12:02:51.584Z,14.82
2023-03-11T12:05:33.801Z,14.82
2023-03-11T12:08:07.006Z,14.86
2023-03-11T12:10:55.258Z,14.96
2023-03-11T12:13:51.302Z,14.94
2023-03-11T12:16:38.842Z,14.89
2023-03-11T12:19:18.386Z,14.95
2023-03-11T12:22:06.816Z,15.02
2023-03-11T12:24:56.956Z,15.05
2023-03-11T12:27:32.162Z,15.02
2023-03-11T12:30:05.272Z,15.02
2023-03-11T12:32:38.366Z,15.05
2023-03-11T12:35:19.328Z,15.03
2023-03-11T12:37:55.881Z,14.93
2023-03-11T12:41:03.295Z,14.88
2023-03-11T12:43:36.233Z,14.88
2023-03-11T12:46:05.573Z,14.93
2023-03-11T12:48:54.395Z,15.00
2023-03-11T12:51:35.185Z,15.05
2023-03-11T12:54:31.419Z,15.09
2023-03-11T12:57:01.490Z,15.02
2023-03-11T12:59:48.061Z,14.99
2023-03-11T13:02:38.077Z,15.05
2023-03-11T13:05:07.783Z,15.10
2023-03-11T13:07:46.370Z,15.16
2023-03-11T13:10:30.322Z,15.23
2023-03-11T13:12:58.815Z,15.27
2023-03-11T13:15:33.967Z,15.36
2023-03-11T13:18:05.389Z,15.42
2023-03-11T13:20:41.491Z,15.53
2023-03-11T13:23:12.778Z,15.64
2023-03-11T13:25:43.139Z,15.73
2023-03-11T13:28:46.116Z,15.77
2023-03-11T13:31:17.110Z,15.80
2023-03-11T13:33:45.353Z,15.85
2023-03-11T13:36:32.313Z,15.93
2023-03-11T13:39:19.165Z,15.94
2023-03-11T13:41:47.885Z,16.00
2023-03-11T13:44:19.141Z,16.07
2023-03-11T13:47:04.478Z,16.13
2023-03-11T13:49:40.639Z,16.23
2023-03-11T13:52:17.569Z,16.29
2023-03-11T13:54:48.577Z,16.35
2023-03-11T13:57:22.509Z,16.42
2023-03-11T13:59:55.101Z,16.41
2023-03-11T14:02:26.829Z,16.39
2023-03-11T14:04:58.485Z,16.43
2023-03-11T14:07:31.892Z,16.46
2023-03-11T14:10:19.595Z,16.47
2023-03-11T14:12:48.601Z,16.53
2023-03-11T14:15:27.135Z,16.56
2023-03-11T14:17:56.604Z,16.59
2023-03-11T14:20:25.705Z,16.61
2023-03-11T14:22:55.335Z,16.61
2023-03-11T14:25:28.314Z,16.59
2023-03-11T14:27:59.151Z,16.50
2023-03-11T14:30:32.341Z,16.46
2023-03-11T14:33:14.788Z,16.47
2023-03-11T14:35:43.454Z,16.46
2023-03-11T14:38:22.678Z,16.45
2023-03-11T14:40:55.810Z,16.47
2023-03-11T14:43:38.897Z,16.45
2023-03-11T14:46:07.020Z,16.44
2023-03-11T14:48:37.645Z,16.47
2023-03-11T14:51:11.104Z,16.52
2023-03-11T14:53:47.951Z,16.56
2023-03-11T14:56:19.287Z,16.62
2023-03-11T14:59:07.633Z,16.71
2023-03-11T15:01:42.156Z,16.83
2023-03-11T15:04:38.258Z,16.90
2023-03-11T15:07:06.441Z,17.04
2023-03-11T15:09:35.428Z,17.16
2023-03-11T15:12:04.524Z,17.30
2023-03-11T15:14:35.892Z,17.39
2023-03-11T15:17:37.787Z,17.44
2023-03-11T15:20:43.777Z,17.48
2023-03-11T15:23:20.146Z,17.49
2023-03-11T15:25:49.438Z,17.55
2023-03-11T15:28:31.974Z,17.61
2023-03-11T15:31:17.098Z,17.67
2023-03-11T15:33:46.849Z,17.71
2023-03-11T15:36:39.634Z,17.72
2023-03-11T15:39:21.395Z,17.74
2023-03-11T15:42:02.197Z,17.77
2023-03-11T15:44:41.624Z,17.83
2023-03-11T15:47:20.752Z,17.85
2023-03-11T15:49:49.065Z,17.84
2023-03-11T15:52:19.444Z,17.80
2023-03-11T15:54:55.516Z,17.79
2023-03-11T15:57:26.740Z,17.80
2023-03-11T15:59:56.555Z,17.87
2023-03-11T16:02:30.423Z,17.88
2023-03-11T16:05:02.288Z,17.92
2023-03-11T16:07:39.478Z,17.89
2023-03-11T16:10:09.870Z,17.85
2023-03-11T16:12:42.627Z,17.77
2023-03-11T16:15:26.876Z,17.72
2023-03-11T16:18:00.219Z,17.72
2023-03-11T16:20:48.631Z,17.76
2023-03-11T16:23:25.424Z,17.83
2023-03-11T16:25:56.227Z,17.93
2023-03-11T16:28:25.741Z,18.02
2023-03-11T16:30:53.855Z,18.09
2023-03-11T16:33:22.505Z,18.13
2023-03-11T16:35:50.930Z,18.15
2023-03-11T16:38:23.411Z,18.18
2023-03-11T16:40:56.264Z,18.24
2023-03-11T16:43:24.556Z,18.29
2023-03-11T16:45:55.062Z,18.33
2023-03-11T16:48:24.160Z,18.33
2023-03-11T16:50:53.814Z,18.32
2023-03-11T16:53:22.252Z,18.34
2023-03-11T16:55:51.247Z,18.37
2023-03-11T16:58:19.536Z,18.42
2023-03-11T17:00:48.111Z,18.46
2023-03-11T17:03:21.371Z,18.50
2023-03-11T17:05:51.528Z,18.49
2023-03-11T17:08:25.357Z,18.46
2023-03-11T17:10:53.697Z,18.44
2023-03-11T17:13:22.305Z,18.46
2023-03-11T17:16:01.173Z,18.50
2023-03-11T17:18:43.127Z,18.56
2023-03-11T17:21:13.456Z,18.60
2023-03-11T17:23:41.759Z,18.61
2023-03-11T17:26:13.867Z,18.61
2023-03-11T17:28:43.615Z,18.59
2023-03-11T17:31:13.473Z,18.57
2023-03-11T17:33:44.669Z,18.58
2023-03-11T17:36:16.073Z,18.49
2023-03-11T17:38:46.669Z,18.35
2023-03-11T17:41:17.292Z,18.26
2023-03-11T17:43:45.875Z,18.22
2023-03-11T17:46:16.874Z,18.22
2023-03-11T17:48:46.422Z,18.27
2023-03-11T17:51:22.483Z,18.31
2023-03-11T17:53:53.471Z,18.37
2023-03-11T17:56:22.243Z,18.39
2023-03-11T17:58:51.924Z,18.43
2023-03-11T18:01:22.456Z,18.43
2023-03-11T18:03:51.162Z,18.43
2023-03-11T18:06:19.716Z,18.57
2023-03-11T18:08:47.989Z,18.63
2023-03-11T18:11:20.714Z,18.68
2023-03-11T18:13:48.970Z,18.61
2023-03-11T18:16:25.256Z,18.57
2023-03-11T18:18:57.210Z,18.54
2023-03-11T18:21:28.080Z,18.52
2023-03-11T18:23:59.986Z,18.50
2023-03-11T18:26:29.713Z,18.50
2023-03-11T18:28:59.673Z,18.52
2023-03-11T18:31:30.072Z,18.56
2023-03-11T18:34:05.318Z,18.58
2023-03-11T18:36:34.997Z,18.56
2023-03-11T18:39:04.981Z,18.52
2023-03-11T18:41:34.997Z,18.48
2023-03-11T18:44:09.967Z,18.49
2023-03-11T18:46:41.624Z,18.54
2023-03-11T18:49:11.966Z,18.54
2023-03-11T18:51:41.256Z,18.65
2023-03-11T18:54:10.599Z,18.70
2023-03-11T18:56:38.620Z,18.74
2023-03-11T18:59:08.990Z,18.77
2023-03-11T19:01:37.381Z,18.86
2023-03-11T19:04:06.151Z,18.92
2023-03-11T19:06:34.988Z,18.97
2023-03-11T19:09:04.092Z,19.03
2023-03-11T19:11:34.900Z,19.05
2023-03-11T19:14:04.582Z,19.07
2023-03-11T19:16:33.484Z,19.04
2023-03-11T19:19:03.677Z,19.07
2023-03-11T19:21:32.977Z,19.11
2023-03-11T19:24:01.899Z,19.14
2023-03-11T19:26:44.416Z,19.15
2023-03-11T19:29:14.994Z,19.10
2023-03-11T19:31:46.286Z,19.10
2023-03-11T19:34:14.929Z,19.07
2023-03-11T19:36:43.949Z,19.07
2023-03-11T19:39:12.443Z,19.07
2023-03-11T19:41:42.663Z,19.08
2023-03-11T19:44:12.716Z,19.07
2023-03-11T19:46:42.815Z,19.05
2023-03-11T19:49:11.486Z,19.00
2023-03-11T19:51:49.678Z,18.95
2023-03-11T19:54:19.640Z,18.88
2023-03-11T19:56:50.476Z,18.79
2023-03-11T19:59:20.173Z,18.72
2023-03-11T20:01:48.510Z,18.70
2023-03-11T20:04:17.075Z,18.71
2023-03-11T20:06:48.353Z,18.72
2023-03-11T20:09:17.773Z,18.66
2023-03-11T20:11:50.704Z,18.58
2023-03-11T20:14:21.490Z,18.50
2023-03-11T20:16:50.909Z,18.45
2023-03-11T20:19:20.167Z,18.44
2023-03-11T20:21:49.461Z,18.43
2023-03-11T20:24:20.176Z,18.40
2023-03-11T20:26:51.098Z,18.34
2023-03-11T20:29:20.311Z,18.24
2023-03-11T20:31:48.604Z,18.17
2023-03-11T20:34:16.977Z,18.17
2023-03-11T20:36:49.322Z,18.21
2023-03-11T20:39:17.704Z,18.24
2023-03-11T20:41:46.194Z,18.25
2023-03-11T20:44:14.603Z,18.19
2023-03-11T20:46:43.936Z,18.14
2023-03-11T20:49:12.583Z,18.14
2023-03-11T20:51:41.984Z,18.19
2023-03-11T20:54:14.938Z,18.26
2023-03-11T20:56:43.818Z,18.31
2023-03-11T20:59:15.317Z,18.31
2023-03-11T21:01:43.768Z,18.28
2023-03-11T21:04:13.162Z,18.24
2023-03-11T21:06:52.630Z,18.22
2023-03-11T21:09:21.035Z,18.22
2023-03-11T21:11:49.903Z,18.22
2023-03-11T21:14:18.823Z,18.23
2023-03-11T21:16:47.292Z,18.24
2023-03-11T21:19:15.845Z,18.20
2023-03-11T21:21:48.475Z,18.10
2023-03-11T21:24:17.130Z,18.04
2023-03-11T21:26:46.422Z,18.00
2023-03-11T21:29:15.560Z,18.01
2023-03-11T21:31:44.057Z,18.02
2023-03-11T21:34:12.661Z,18.05
2023-03-11T21:36:47.060Z,18.05
2023-03-11T21:39:16.206Z,18.03
2023-03-11T21:41:44.312Z,17.99
2023-03-11T21:44:12.460Z,17.91
2023-03-11T21:46:40.696Z,17.87
2023-03-11T21:49:12.502Z,17.86
2023-03-11T21:51:41.140Z,17.83
2023-03-11T21:54:10.968Z,17.79
2023-03-11T21:56:39.945Z,17.74
2023-03-11T21:59:08.593Z,17.68
2023-03-11T22:01:37.905Z,17.63
2023-03-11T22:04:06.482Z,17.54
2023-03-11T22:06:34.973Z,17.47
2023-03-11T22:09:10.460Z,17.45
2023-03-11T22:11:39.568Z,17.44
2023-03-11T22:14:07.875Z,17.39
2023-03-11T22:16:36.714Z,17.36
2023-03-11T22:19:09.129Z,17.32
2023-03-11T22:21:37.803Z,17.22
2023-03-11T22:24:06.559Z,17.09
2023-03-11T22:26:35.433Z,16.94
2023-03-11T22:29:04.200Z,16.90
2023-03-11T22:31:34.767Z,16.86
2023-03-11T22:34:03.032Z,16.73
2023-03-11T22:36:31.995Z,16.51
2023-03-11T22:39:04.484Z,16.35
2023-03-11T22:41:33.880Z,16.31
2023-03-11T22:44:02.862Z,16.28
2023-03-11T22:46:31.693Z,16.28
2023-03-11T22:49:00.615Z,16.24
2023-03-11T22:51:29.858Z,16.14
2023-03-11T22:53:58.322Z,16.11
2023-03-11T22:56:26.836Z,16.02
2023-03-11T22:58:55.593Z,15.87
2023-03-11T23:01:23.899Z,15.79
2023-03-11T23:03:52.072Z,15.74
2023-03-11T23:06:20.847Z,15.72
2023-03-11T23:08:49.426Z,15.69
2023-03-11T23:11:21.501Z,15.58
2023-03-11T23:13:51.299Z,15.49
2023-03-11T23:16:21.465Z,15.45
2023-03-11T23:18:53.100Z,15.41
2023-03-11T23:21:26.713Z,15.41
2023-03-11T23:23:55.317Z,15.38
2023-03-11T23:26:23.691Z,15.34
2023-03-11T23:28:52.132Z,15.32
2023-03-11T23:31:21.486Z,15.29
2023-03-11T23:33:51.788Z,15.20
2023-03-11T23:36:21.678Z,15.07
2023-03-11T23:38:54.746Z,15.01
2023-03-11T23:41:24.030Z,15.02
2023-03-11T23:43:52.470Z,15.08
2023-03-11T23:46:21.133Z,15.17
2023-03-11T23:48:49.430Z,15.25
2023-03-11T23:51:18.117Z,15.31
2023-03-11T23:53:47.297Z,15.32
2023-03-11T23:56:17.513Z,15.34
2023-03-11T23:59:31.887Z,14.20
